sensor_id;sensor_type;location;lat;lon;timestamp;P1;durP1;ratioP1;P2;durP2;ratioP2
55827;SDS011;41758;51.992;5.890;2024-03-22T00:01:48;31.95;;;24.48;;
55827;SDS011;41758;51.992;5.890;2024-03-22T00:04:15;34.65;;;27.40;;
55827;SDS011;41758;51.992;5.890;2024-03-22T00:06:41;40.17;;;30.13;;
55827;SDS011;41758;51.992;5.890;2024-03-22T00:09:08;38.00;;;29.73;;
55827;SDS011;41758;51.992;5.890;2024-03-22T00:11:34;41.53;;;30.90;;
55827;SDS011;41758;51.992;5.890;2024-03-22T00:14:01;40.00;;;29.88;;
55827;SDS011;41758;51.992;5.890;2024-03-22T00:16:27;37.05;;;29.10;;
55827;SDS011;41758;51.992;5.890;2024-03-22T00:18:53;39.05;;;31.17;;
55827;SDS011;41758;51.992;5.890;2024-03-22T00:21:19;37.95;;;30.13;;
55827;SDS011;41758;51.992;5.890;2024-03-22T00:23:46;42.33;;;31.48;;
55827;SDS011;41758;51.992;5.890;2024-03-22T00:26:12;38.38;;;29.80;;
55827;SDS011;41758;51.992;5.890;2024-03-22T00:28:37;38.35;;;28.98;;
55827;SDS011;41758;51.992;5.890;2024-03-22T00:31:03;45.00;;;32.40;;
55827;SDS011;41758;51.992;5.890;2024-03-22T00:33:29;42.40;;;31.33;;
55827;SDS011;41758;51.992;5.890;2024-03-22T00:35:54;43.38;;;32.17;;
55827;SDS011;41758;51.992;5.890;2024-03-22T00:38:20;43.67;;;29.85;;
55827;SDS011;41758;51.992;5.890;2024-03-22T00:40:46;45.88;;;30.45;;
55827;SDS011;41758;51.992;5.890;2024-03-22T00:43:11;48.35;;;34.97;;
55827;SDS011;41758;51.992;5.890;2024-03-22T00:45:37;39.88;;;30.80;;
55827;SDS011;41758;51.992;5.890;2024-03-22T00:48:03;42.30;;;30.27;;
55827;SDS011;41758;51.992;5.890;2024-03-22T00:50:29;44.45;;;29.55;;
55827;SDS011;41758;51.992;5.890;2024-03-22T00:52:54;39.88;;;29.38;;
55827;SDS011;41758;51.992;5.890;2024-03-22T00:55:21;41.13;;;29.70;;
55827;SDS011;41758;51.992;5.890;2024-03-22T00:57:48;44.00;;;31.67;;
55827;SDS011;41758;51.992;5.890;2024-03-22T01:00:14;41.60;;;31.67;;
55827;SDS011;41758;51.992;5.890;2024-03-22T01:02:40;44.88;;;32.08;;
55827;SDS011;41758;51.992;5.890;2024-03-22T01:05:06;41.85;;;31.45;;
55827;SDS011;41758;51.992;5.890;2024-03-22T01:07:32;46.65;;;32.45;;
55827;SDS011;41758;51.992;5.890;2024-03-22T01:09:58;43.70;;;33.10;;
55827;SDS011;41758;51.992;5.890;2024-03-22T01:12:24;43.40;;;31.35;;
55827;SDS011;41758;51.992;5.890;2024-03-22T01:14:50;44.92;;;33.00;;
55827;SDS011;41758;51.992;5.890;2024-03-22T01:17:15;45.72;;;32.92;;
55827;SDS011;41758;51.992;5.890;2024-03-22T01:19:41;43.28;;;32.72;;
55827;SDS011;41758;51.992;5.890;2024-03-22T01:22:07;40.13;;;30.20;;
55827;SDS011;41758;51.992;5.890;2024-03-22T01:24:32;42.42;;;31.60;;
55827;SDS011;41758;51.992;5.890;2024-03-22T01:26:58;39.63;;;28.95;;
55827;SDS011;41758;51.992;5.890;2024-03-22T01:29:24;43.17;;;29.98;;
55827;SDS011;41758;51.992;5.890;2024-03-22T01:31:49;40.97;;;30.50;;
55827;SDS011;41758;51.992;5.890;2024-03-22T01:34:15;40.50;;;30.75;;
55827;SDS011;41758;51.992;5.890;2024-03-22T01:36:41;42.80;;;31.65;;
55827;SDS011;41758;51.992;5.890;2024-03-22T01:39:06;43.28;;;31.25;;
55827;SDS011;41758;51.992;5.890;2024-03-22T01:41:32;46.08;;;33.00;;
55827;SDS011;41758;51.992;5.890;2024-03-22T01:43:58;48.67;;;34.85;;
55827;SDS011;41758;51.992;5.890;2024-03-22T01:46:24;43.03;;;32.13;;
55827;SDS011;41758;51.992;5.890;2024-03-22T01:48:50;46.78;;;33.50;;
55827;SDS011;41758;51.992;5.890;2024-03-22T01:51:16;50.13;;;34.97;;
55827;SDS011;41758;51.992;5.890;2024-03-22T01:53:43;45.33;;;33.25;;
55827;SDS011;41758;51.992;5.890;2024-03-22T01:56:09;45.05;;;32.72;;
55827;SDS011;41758;51.992;5.890;2024-03-22T01:58:36;41.65;;;29.00;;
55827;SDS011;41758;51.992;5.890;2024-03-22T02:01:02;40.47;;;30.95;;
55827;SDS011;41758;51.992;5.890;2024-03-22T02:03:27;45.35;;;33.83;;
55827;SDS011;41758;51.992;5.890;2024-03-22T02:05:53;41.55;;;31.45;;
55827;SDS011;41758;51.992;5.890;2024-03-22T02:08:19;42.80;;;31.15;;
55827;SDS011;41758;51.992;5.890;2024-03-22T02:10:45;43.45;;;30.50;;
55827;SDS011;41758;51.992;5.890;2024-03-22T02:13:11;46.50;;;33.92;;
55827;SDS011;41758;51.992;5.890;2024-03-22T02:15:37;46.42;;;33.17;;
55827;SDS011;41758;51.992;5.890;2024-03-22T02:18:03;44.92;;;31.58;;
55827;SDS011;41758;51.992;5.890;2024-03-22T02:20:29;42.53;;;32.45;;
55827;SDS011;41758;51.992;5.890;2024-03-22T02:22:55;39.92;;;29.65;;
55827;SDS011;41758;51.992;5.890;2024-03-22T02:25:21;41.22;;;30.58;;
55827;SDS011;41758;51.992;5.890;2024-03-22T02:27:46;52.40;;;36.00;;
55827;SDS011;41758;51.992;5.890;2024-03-22T02:30:15;47.55;;;34.15;;
55827;SDS011;41758;51.992;5.890;2024-03-22T02:32:42;44.67;;;33.70;;
55827;SDS011;41758;51.992;5.890;2024-03-22T02:35:08;45.42;;;33.58;;
55827;SDS011;41758;51.992;5.890;2024-03-22T02:37:33;40.70;;;29.67;;
55827;SDS011;41758;51.992;5.890;2024-03-22T02:39:59;39.25;;;31.40;;
55827;SDS011;41758;51.992;5.890;2024-03-22T02:42:25;46.38;;;34.67;;
55827;SDS011;41758;51.992;5.890;2024-03-22T02:44:51;42.30;;;31.42;;
55827;SDS011;41758;51.992;5.890;2024-03-22T02:47:17;46.92;;;35.17;;
55827;SDS011;41758;51.992;5.890;2024-03-22T02:49:43;47.80;;;34.58;;
55827;SDS011;41758;51.992;5.890;2024-03-22T02:52:08;42.25;;;31.15;;
55827;SDS011;41758;51.992;5.890;2024-03-22T02:54:34;43.33;;;32.63;;
55827;SDS011;41758;51.992;5.890;2024-03-22T02:57:00;45.05;;;32.70;;
55827;SDS011;41758;51.992;5.890;2024-03-22T02:59:26;43.47;;;31.40;;
55827;SDS011;41758;51.992;5.890;2024-03-22T03:01:52;42.58;;;31.70;;
55827;SDS011;41758;51.992;5.890;2024-03-22T03:04:18;44.72;;;33.05;;
55827;SDS011;41758;51.992;5.890;2024-03-22T03:06:44;47.65;;;35.65;;
55827;SDS011;41758;51.992;5.890;2024-03-22T03:09:12;46.08;;;34.15;;
55827;SDS011;41758;51.992;5.890;2024-03-22T03:11:39;37.75;;;29.65;;
55827;SDS011;41758;51.992;5.890;2024-03-22T03:14:05;45.80;;;33.65;;
55827;SDS011;41758;51.992;5.890;2024-03-22T03:16:31;47.35;;;34.75;;
55827;SDS011;41758;51.992;5.890;2024-03-22T03:18:57;43.90;;;33.00;;
55827;SDS011;41758;51.992;5.890;2024-03-22T03:21:22;38.95;;;29.58;;
55827;SDS011;41758;51.992;5.890;2024-03-22T03:23:48;44.55;;;32.67;;
55827;SDS011;41758;51.992;5.890;2024-03-22T03:26:14;44.83;;;34.63;;
55827;SDS011;41758;51.992;5.890;2024-03-22T03:28:39;43.67;;;33.13;;
55827;SDS011;41758;51.992;5.890;2024-03-22T03:31:05;39.92;;;29.52;;
55827;SDS011;41758;51.992;5.890;2024-03-22T03:33:31;44.45;;;34.65;;
55827;SDS011;41758;51.992;5.890;2024-03-22T03:35:56;46.90;;;33.45;;
55827;SDS011;41758;51.992;5.890;2024-03-22T03:38:22;50.83;;;37.47;;
55827;SDS011;41758;51.992;5.890;2024-03-22T03:40:48;47.03;;;36.28;;
55827;SDS011;41758;51.992;5.890;2024-03-22T03:43:13;44.63;;;33.47;;
55827;SDS011;41758;51.992;5.890;2024-03-22T03:45:39;48.58;;;34.80;;
55827;SDS011;41758;51.992;5.890;2024-03-22T03:48:05;48.30;;;37.22;;
55827;SDS011;41758;51.992;5.890;2024-03-22T03:50:31;39.25;;;30.75;;
55827;SDS011;41758;51.992;5.890;2024-03-22T03:52:56;45.50;;;32.22;;
55827;SDS011;41758;51.992;5.890;2024-03-22T03:55:22;44.13;;;33.60;;
55827;SDS011;41758;51.992;5.890;2024-03-22T03:57:51;43.45;;;34.00;;
55827;SDS011;41758;51.992;5.890;2024-03-22T04:00:18;46.35;;;34.08;;
55827;SDS011;41758;51.992;5.890;2024-03-22T04:02:44;42.22;;;33.38;;
55827;SDS011;41758;51.992;5.890;2024-03-22T04:05:10;45.72;;;34.47;;
55827;SDS011;41758;51.992;5.890;2024-03-22T04:07:36;42.78;;;33.78;;
55827;SDS011;41758;51.992;5.890;2024-03-22T04:10:04;42.80;;;33.42;;
55827;SDS011;41758;51.992;5.890;2024-03-22T04:12:31;44.28;;;34.63;;
55827;SDS011;41758;51.992;5.890;2024-03-22T04:14:56;41.95;;;32.08;;
55827;SDS011;41758;51.992;5.890;2024-03-22T04:17:22;44.08;;;34.65;;
55827;SDS011;41758;51.992;5.890;2024-03-22T04:19:49;40.60;;;30.98;;
55827;SDS011;41758;51.992;5.890;2024-03-22T04:22:15;37.60;;;29.13;;
55827;SDS011;41758;51.992;5.890;2024-03-22T04:24:40;38.90;;;31.40;;
55827;SDS011;41758;51.992;5.890;2024-03-22T04:27:06;41.17;;;32.83;;
55827;SDS011;41758;51.992;5.890;2024-03-22T04:29:32;43.28;;;31.27;;
55827;SDS011;41758;51.992;5.890;2024-03-22T04:31:58;44.75;;;33.50;;
55827;SDS011;41758;51.992;5.890;2024-03-22T04:34:24;40.63;;;31.40;;
55827;SDS011;41758;51.992;5.890;2024-03-22T04:36:50;42.65;;;33.53;;
55827;SDS011;41758;51.992;5.890;2024-03-22T04:39:17;40.85;;;32.28;;
55827;SDS011;41758;51.992;5.890;2024-03-22T04:41:44;39.47;;;31.00;;
55827;SDS011;41758;51.992;5.890;2024-03-22T04:44:10;38.42;;;30.48;;
55827;SDS011;41758;51.992;5.890;2024-03-22T04:46:36;43.47;;;32.92;;
55827;SDS011;41758;51.992;5.890;2024-03-22T04:49:01;38.97;;;30.90;;
55827;SDS011;41758;51.992;5.890;2024-03-22T04:51:27;43.38;;;31.77;;
55827;SDS011;41758;51.992;5.890;2024-03-22T04:53:53;43.28;;;32.95;;
55827;SDS011;41758;51.992;5.890;2024-03-22T04:56:18;40.08;;;30.77;;
55827;SDS011;41758;51.992;5.890;2024-03-22T04:58:44;38.20;;;29.10;;
55827;SDS011;41758;51.992;5.890;2024-03-22T05:01:10;41.75;;;30.55;;
55827;SDS011;41758;51.992;5.890;2024-03-22T05:03:37;39.20;;;30.50;;
55827;SDS011;41758;51.992;5.890;2024-03-22T05:06:03;37.63;;;28.58;;
55827;SDS011;41758;51.992;5.890;2024-03-22T05:08:31;37.63;;;29.75;;
55827;SDS011;41758;51.992;5.890;2024-03-22T05:10:57;39.50;;;29.10;;
55827;SDS011;41758;51.992;5.890;2024-03-22T05:13:23;41.17;;;32.15;;
55827;SDS011;41758;51.992;5.890;2024-03-22T05:15:48;40.38;;;28.17;;
55827;SDS011;41758;51.992;5.890;2024-03-22T05:18:14;41.13;;;30.90;;
55827;SDS011;41758;51.992;5.890;2024-03-22T05:20:40;34.63;;;26.50;;
55827;SDS011;41758;51.992;5.890;2024-03-22T05:23:06;38.42;;;29.42;;
55827;SDS011;41758;51.992;5.890;2024-03-22T05:25:31;36.00;;;27.77;;
55827;SDS011;41758;51.992;5.890;2024-03-22T05:27:57;37.92;;;28.55;;
55827;SDS011;41758;51.992;5.890;2024-03-22T05:30:23;40.55;;;30.38;;
55827;SDS011;41758;51.992;5.890;2024-03-22T05:32:48;38.70;;;28.23;;
55827;SDS011;41758;51.992;5.890;2024-03-22T05:35:15;37.70;;;28.55;;
55827;SDS011;41758;51.992;5.890;2024-03-22T05:37:41;33.10;;;25.80;;
55827;SDS011;41758;51.992;5.890;2024-03-22T05:40:07;32.22;;;24.38;;
55827;SDS011;41758;51.992;5.890;2024-03-22T05:42:34;29.80;;;23.38;;
55827;SDS011;41758;51.992;5.890;2024-03-22T05:44:59;37.55;;;28.33;;
55827;SDS011;41758;51.992;5.890;2024-03-22T05:47:25;33.75;;;26.63;;
55827;SDS011;41758;51.992;5.890;2024-03-22T05:49:51;33.95;;;25.15;;
55827;SDS011;41758;51.992;5.890;2024-03-22T05:52:17;30.05;;;22.80;;
55827;SDS011;41758;51.992;5.890;2024-03-22T05:54:43;35.35;;;26.13;;
55827;SDS011;41758;51.992;5.890;2024-03-22T05:57:09;33.20;;;25.05;;
55827;SDS011;41758;51.992;5.890;2024-03-22T05:59:35;37.45;;;26.83;;
55827;SDS011;41758;51.992;5.890;2024-03-22T06:02:02;36.00;;;26.52;;
55827;SDS011;41758;51.992;5.890;2024-03-22T06:04:27;32.05;;;24.63;;
55827;SDS011;41758;51.992;5.890;2024-03-22T06:06:53;31.60;;;23.48;;
55827;SDS011;41758;51.992;5.890;2024-03-22T06:09:19;35.72;;;25.20;;
55827;SDS011;41758;51.992;5.890;2024-03-22T06:12:00;38.30;;;27.75;;
55827;SDS011;41758;51.992;5.890;2024-03-22T06:14:27;33.65;;;26.85;;
55827;SDS011;41758;51.992;5.890;2024-03-22T06:16:53;35.47;;;25.67;;
55827;SDS011;41758;51.992;5.890;2024-03-22T06:19:19;35.25;;;26.70;;
55827;SDS011;41758;51.992;5.890;2024-03-22T06:21:44;34.95;;;26.17;;
55827;SDS011;41758;51.992;5.890;2024-03-22T06:24:10;33.45;;;25.88;;
55827;SDS011;41758;51.992;5.890;2024-03-22T06:26:36;30.63;;;23.90;;
55827;SDS011;41758;51.992;5.890;2024-03-22T06:29:01;33.05;;;26.35;;
55827;SDS011;41758;51.992;5.890;2024-03-22T06:31:27;30.05;;;23.88;;
55827;SDS011;41758;51.992;5.890;2024-03-22T06:33:54;31.00;;;24.38;;
55827;SDS011;41758;51.992;5.890;2024-03-22T06:36:21;29.98;;;22.95;;
55827;SDS011;41758;51.992;5.890;2024-03-22T06:38:47;30.30;;;24.02;;
55827;SDS011;41758;51.992;5.890;2024-03-22T06:41:13;31.27;;;24.77;;
55827;SDS011;41758;51.992;5.890;2024-03-22T06:43:38;31.45;;;23.55;;
55827;SDS011;41758;51.992;5.890;2024-03-22T06:46:04;25.63;;;21.02;;
55827;SDS011;41758;51.992;5.890;2024-03-22T06:48:30;32.55;;;24.70;;
55827;SDS011;41758;51.992;5.890;2024-03-22T06:50:55;31.35;;;24.10;;
55827;SDS011;41758;51.992;5.890;2024-03-22T06:53:21;28.25;;;22.63;;
55827;SDS011;41758;51.992;5.890;2024-03-22T06:55:47;27.08;;;22.02;;
55827;SDS011;41758;51.992;5.890;2024-03-22T06:58:12;25.23;;;19.67;;
55827;SDS011;41758;51.992;5.890;2024-03-22T07:00:38;27.65;;;22.38;;
55827;SDS011;41758;51.992;5.890;2024-03-22T07:03:04;29.58;;;23.08;;
55827;SDS011;41758;51.992;5.890;2024-03-22T07:05:30;30.20;;;24.15;;
55827;SDS011;41758;51.992;5.890;2024-03-22T07:07:56;31.15;;;24.23;;
55827;SDS011;41758;51.992;5.890;2024-03-22T07:10:22;29.35;;;23.98;;
55827;SDS011;41758;51.992;5.890;2024-03-22T07:12:53;24.58;;;19.73;;
55827;SDS011;41758;51.992;5.890;2024-03-22T07:15:20;26.52;;;19.13;;
55827;SDS011;41758;51.992;5.890;2024-03-22T07:17:47;27.40;;;22.40;;
55827;SDS011;41758;51.992;5.890;2024-03-22T07:20:12;28.35;;;21.83;;
55827;SDS011;41758;51.992;5.890;2024-03-22T07:22:38;29.58;;;23.35;;
55827;SDS011;41758;51.992;5.890;2024-03-22T07:25:04;27.05;;;21.45;;
55827;SDS011;41758;51.992;5.890;2024-03-22T07:27:30;25.23;;;20.52;;
55827;SDS011;41758;51.992;5.890;2024-03-22T07:29:56;26.40;;;21.17;;
55827;SDS011;41758;51.992;5.890;2024-03-22T07:32:22;24.85;;;19.80;;
55827;SDS011;41758;51.992;5.890;2024-03-22T07:34:48;24.90;;;19.60;;
55827;SDS011;41758;51.992;5.890;2024-03-22T07:37:14;30.00;;;22.67;;
55827;SDS011;41758;51.992;5.890;2024-03-22T07:39:39;28.63;;;22.80;;
55827;SDS011;41758;51.992;5.890;2024-03-22T07:42:05;30.67;;;24.00;;
55827;SDS011;41758;51.992;5.890;2024-03-22T07:44:31;26.88;;;21.75;;
55827;SDS011;41758;51.992;5.890;2024-03-22T07:46:57;27.23;;;22.55;;
55827;SDS011;41758;51.992;5.890;2024-03-22T07:49:22;28.05;;;22.80;;
55827;SDS011;41758;51.992;5.890;2024-03-22T07:51:48;28.50;;;23.17;;
55827;SDS011;41758;51.992;5.890;2024-03-22T07:54:14;30.80;;;24.38;;
55827;SDS011;41758;51.992;5.890;2024-03-22T07:56:40;27.40;;;21.60;;
55827;SDS011;41758;51.992;5.890;2024-03-22T07:59:05;27.05;;;21.95;;
55827;SDS011;41758;51.992;5.890;2024-03-22T08:01:31;28.73;;;21.42;;
55827;SDS011;41758;51.992;5.890;2024-03-22T08:03:57;32.30;;;24.17;;
55827;SDS011;41758;51.992;5.890;2024-03-22T08:06:22;27.55;;;21.33;;
55827;SDS011;41758;51.992;5.890;2024-03-22T08:08:48;24.63;;;20.52;;
55827;SDS011;41758;51.992;5.890;2024-03-22T08:11:14;27.90;;;20.88;;
55827;SDS011;41758;51.992;5.890;2024-03-22T08:13:40;28.55;;;21.88;;
55827;SDS011;41758;51.992;5.890;2024-03-22T08:16:05;28.77;;;21.25;;
55827;SDS011;41758;51.992;5.890;2024-03-22T08:18:32;30.65;;;24.58;;
55827;SDS011;41758;51.992;5.890;2024-03-22T08:21:00;29.45;;;21.77;;
55827;SDS011;41758;51.992;5.890;2024-03-22T08:23:26;26.08;;;21.77;;
55827;SDS011;41758;51.992;5.890;2024-03-22T08:25:51;25.38;;;20.58;;
55827;SDS011;41758;51.992;5.890;2024-03-22T08:28:17;29.38;;;23.38;;
55827;SDS011;41758;51.992;5.890;2024-03-22T08:30:43;27.45;;;21.67;;
55827;SDS011;41758;51.992;5.890;2024-03-22T08:33:09;31.23;;;25.30;;
55827;SDS011;41758;51.992;5.890;2024-03-22T08:35:35;31.25;;;24.27;;
55827;SDS011;41758;51.992;5.890;2024-03-22T08:38:00;32.53;;;26.17;;
55827;SDS011;41758;51.992;5.890;2024-03-22T08:40:26;29.38;;;23.60;;
55827;SDS011;41758;51.992;5.890;2024-03-22T08:42:52;32.65;;;24.80;;
55827;SDS011;41758;51.992;5.890;2024-03-22T08:45:18;30.17;;;25.40;;
55827;SDS011;41758;51.992;5.890;2024-03-22T08:47:43;34.38;;;27.67;;
55827;SDS011;41758;51.992;5.890;2024-03-22T08:50:12;35.25;;;28.00;;
55827;SDS011;41758;51.992;5.890;2024-03-22T08:52:38;37.63;;;29.60;;
55827;SDS011;41758;51.992;5.890;2024-03-22T08:55:04;34.47;;;28.50;;
55827;SDS011;41758;51.992;5.890;2024-03-22T08:57:32;35.60;;;27.77;;
55827;SDS011;41758;51.992;5.890;2024-03-22T08:59:58;35.58;;;28.75;;
55827;SDS011;41758;51.992;5.890;2024-03-22T09:02:24;37.15;;;30.45;;
55827;SDS011;41758;51.992;5.890;2024-03-22T09:04:49;34.05;;;26.92;;
55827;SDS011;41758;51.992;5.890;2024-03-22T09:07:16;36.42;;;29.38;;
55827;SDS011;41758;51.992;5.890;2024-03-22T09:09:42;33.45;;;27.55;;
55827;SDS011;41758;51.992;5.890;2024-03-22T09:12:08;39.92;;;31.95;;
55827;SDS011;41758;51.992;5.890;2024-03-22T09:14:34;42.33;;;33.83;;
55827;SDS011;41758;51.992;5.890;2024-03-22T09:16:59;35.03;;;29.30;;
55827;SDS011;41758;51.992;5.890;2024-03-22T09:19:25;40.60;;;30.45;;
55827;SDS011;41758;51.992;5.890;2024-03-22T09:21:51;39.50;;;31.52;;
55827;SDS011;41758;51.992;5.890;2024-03-22T09:24:16;41.20;;;31.45;;
55827;SDS011;41758;51.992;5.890;2024-03-22T09:26:42;41.22;;;32.53;;
55827;SDS011;41758;51.992;5.890;2024-03-22T09:29:08;42.88;;;34.08;;
55827;SDS011;41758;51.992;5.890;2024-03-22T09:31:33;40.20;;;31.13;;
55827;SDS011;41758;51.992;5.890;2024-03-22T09:33:59;39.35;;;31.70;;
55827;SDS011;41758;51.992;5.890;2024-03-22T09:36:25;39.10;;;31.58;;
55827;SDS011;41758;51.992;5.890;2024-03-22T09:38:50;41.97;;;32.72;;
55827;SDS011;41758;51.992;5.890;2024-03-22T09:41:17;39.10;;;31.13;;
55827;SDS011;41758;51.992;5.890;2024-03-22T09:43:49;37.60;;;30.08;;
55827;SDS011;41758;51.992;5.890;2024-03-22T09:46:17;37.88;;;30.80;;
55827;SDS011;41758;51.992;5.890;2024-03-22T09:48:46;35.33;;;29.88;;
55827;SDS011;41758;51.992;5.890;2024-03-22T09:51:13;35.92;;;29.60;;
55827;SDS011;41758;51.992;5.890;2024-03-22T09:53:43;39.15;;;30.02;;
55827;SDS011;41758;51.992;5.890;2024-03-22T09:56:10;36.92;;;30.92;;
55827;SDS011;41758;51.992;5.890;2024-03-22T09:58:40;41.65;;;32.50;;
55827;SDS011;41758;51.992;5.890;2024-03-22T10:01:07;39.33;;;31.85;;
55827;SDS011;41758;51.992;5.890;2024-03-22T10:03:33;39.20;;;32.63;;
55827;SDS011;41758;51.992;5.890;2024-03-22T10:05:58;44.00;;;33.65;;
55827;SDS011;41758;51.992;5.890;2024-03-22T10:08:24;34.05;;;29.30;;
55827;SDS011;41758;51.992;5.890;2024-03-22T10:10:50;42.25;;;34.45;;
55827;SDS011;41758;51.992;5.890;2024-03-22T10:13:16;36.10;;;29.55;;
55827;SDS011;41758;51.992;5.890;2024-03-22T10:15:41;38.80;;;31.08;;
55827;SDS011;41758;51.992;5.890;2024-03-22T10:18:07;37.65;;;31.00;;
55827;SDS011;41758;51.992;5.890;2024-03-22T10:20:35;35.80;;;29.25;;
55827;SDS011;41758;51.992;5.890;2024-03-22T10:23:01;32.42;;;26.52;;
55827;SDS011;41758;51.992;5.890;2024-03-22T10:25:26;30.63;;;27.10;;
55827;SDS011;41758;51.992;5.890;2024-03-22T10:27:56;32.75;;;27.50;;
55827;SDS011;41758;51.992;5.890;2024-03-22T10:30:22;32.42;;;27.10;;
55827;SDS011;41758;51.992;5.890;2024-03-22T10:32:49;32.42;;;28.08;;
55827;SDS011;41758;51.992;5.890;2024-03-22T10:35:16;35.05;;;30.10;;
55827;SDS011;41758;51.992;5.890;2024-03-22T10:37:42;28.70;;;25.48;;
55827;SDS011;41758;51.992;5.890;2024-03-22T10:40:08;32.17;;;27.77;;
55827;SDS011;41758;51.992;5.890;2024-03-22T10:42:35;32.05;;;27.02;;
55827;SDS011;41758;51.992;5.890;2024-03-22T10:45:03;26.80;;;23.55;;
55827;SDS011;41758;51.992;5.890;2024-03-22T10:47:30;26.33;;;23.00;;
55827;SDS011;41758;51.992;5.890;2024-03-22T10:50:04;26.73;;;23.77;;
55827;SDS011;41758;51.992;5.890;2024-03-22T10:57:56;26.92;;;23.67;;
55827;SDS011;41758;51.992;5.890;2024-03-22T11:00:29;25.55;;;22.80;;
55827;SDS011;41758;51.992;5.890;2024-03-22T11:02:55;22.23;;;19.15;;
55827;SDS011;41758;51.992;5.890;2024-03-22T11:05:21;22.50;;;20.10;;
55827;SDS011;41758;51.992;5.890;2024-03-22T11:07:47;27.30;;;23.58;;
55827;SDS011;41758;51.992;5.890;2024-03-22T11:10:25;23.58;;;19.92;;
55827;SDS011;41758;51.992;5.890;2024-03-22T11:13:01;24.27;;;21.45;;
55827;SDS011;41758;51.992;5.890;2024-03-22T11:15:30;27.67;;;22.88;;
55827;SDS011;41758;51.992;5.890;2024-03-22T11:17:56;24.38;;;20.73;;
55827;SDS011;41758;51.992;5.890;2024-03-22T11:20:22;21.60;;;19.27;;
55827;SDS011;41758;51.992;5.890;2024-03-22T11:22:49;21.20;;;17.70;;
55827;SDS011;41758;51.992;5.890;2024-03-22T11:25:16;21.88;;;17.33;;
55827;SDS011;41758;51.992;5.890;2024-03-22T11:27:43;19.80;;;16.80;;
55827;SDS011;41758;51.992;5.890;2024-03-22T11:30:08;18.67;;;15.98;;
55827;SDS011;41758;51.992;5.890;2024-03-22T11:32:35;20.10;;;16.90;;
55827;SDS011;41758;51.992;5.890;2024-03-22T11:35:09;17.88;;;15.65;;
55827;SDS011;41758;51.992;5.890;2024-03-22T11:37:36;17.45;;;15.35;;
55827;SDS011;41758;51.992;5.890;2024-03-22T11:40:06;17.67;;;15.77;;
55827;SDS011;41758;51.992;5.890;2024-03-22T11:42:46;17.38;;;15.57;;
55827;SDS011;41758;51.992;5.890;2024-03-22T11:45:14;16.23;;;14.38;;
55827;SDS011;41758;51.992;5.890;2024-03-22T11:47:42;14.32;;;12.23;;
55827;SDS011;41758;51.992;5.890;2024-03-22T11:50:09;14.57;;;12.93;;
55827;SDS011;41758;51.992;5.890;2024-03-22T11:52:39;15.10;;;12.65;;
55827;SDS011;41758;51.992;5.890;2024-03-22T11:55:12;14.30;;;12.00;;
55827;SDS011;41758;51.992;5.890;2024-03-22T11:57:39;13.50;;;11.18;;
55827;SDS011;41758;51.992;5.890;2024-03-22T12:00:30;13.18;;;11.35;;
55827;SDS011;41758;51.992;5.890;2024-03-22T12:02:56;11.02;;;9.75;;
55827;SDS011;41758;51.992;5.890;2024-03-22T12:05:22;11.02;;;9.00;;
55827;SDS011;41758;51.992;5.890;2024-03-22T12:07:48;11.10;;;9.15;;
55827;SDS011;41758;51.992;5.890;2024-03-22T12:10:13;11.25;;;9.15;;
55827;SDS011;41758;51.992;5.890;2024-03-22T12:12:39;9.38;;;8.05;;
55827;SDS011;41758;51.992;5.890;2024-03-22T12:15:05;10.90;;;9.00;;
55827;SDS011;41758;51.992;5.890;2024-03-22T12:17:31;9.23;;;8.25;;
55827;SDS011;41758;51.992;5.890;2024-03-22T12:19:57;9.57;;;8.57;;
55827;SDS011;41758;51.992;5.890;2024-03-22T12:22:23;9.32;;;8.10;;
55827;SDS011;41758;51.992;5.890;2024-03-22T12:24:50;9.77;;;8.65;;
55827;SDS011;41758;51.992;5.890;2024-03-22T12:27:16;10.23;;;8.45;;
55827;SDS011;41758;51.992;5.890;2024-03-22T12:29:42;10.00;;;8.77;;
55827;SDS011;41758;51.992;5.890;2024-03-22T12:32:08;8.65;;;7.82;;
55827;SDS011;41758;51.992;5.890;2024-03-22T12:34:33;10.65;;;9.43;;
55827;SDS011;41758;51.992;5.890;2024-03-22T12:36:59;8.80;;;7.35;;
55827;SDS011;41758;51.992;5.890;2024-03-22T12:39:25;8.80;;;7.90;;
55827;SDS011;41758;51.992;5.890;2024-03-22T12:41:51;10.50;;;9.13;;
55827;SDS011;41758;51.992;5.890;2024-03-22T12:44:17;9.38;;;8.35;;
55827;SDS011;41758;51.992;5.890;2024-03-22T12:46:43;8.90;;;8.00;;
55827;SDS011;41758;51.992;5.890;2024-03-22T12:49:10;10.30;;;9.13;;
55827;SDS011;41758;51.992;5.890;2024-03-22T12:51:36;9.18;;;7.90;;
55827;SDS011;41758;51.992;5.890;2024-03-22T12:54:03;8.00;;;7.20;;
55827;SDS011;41758;51.992;5.890;2024-03-22T12:56:30;9.30;;;8.30;;
55827;SDS011;41758;51.992;5.890;2024-03-22T12:58:56;7.63;;;6.82;;
55827;SDS011;41758;51.992;5.890;2024-03-22T13:01:22;6.93;;;6.22;;
55827;SDS011;41758;51.992;5.890;2024-03-22T13:03:47;8.20;;;7.25;;
55827;SDS011;41758;51.992;5.890;2024-03-22T13:06:13;7.90;;;6.93;;
55827;SDS011;41758;51.992;5.890;2024-03-22T13:08:39;6.60;;;5.82;;
55827;SDS011;41758;51.992;5.890;2024-03-22T13:11:05;7.25;;;6.47;;
55827;SDS011;41758;51.992;5.890;2024-03-22T13:13:33;8.20;;;6.22;;
55827;SDS011;41758;51.992;5.890;2024-03-22T13:15:59;6.18;;;5.53;;
55827;SDS011;41758;51.992;5.890;2024-03-22T13:18:27;7.20;;;5.63;;
55827;SDS011;41758;51.992;5.890;2024-03-22T13:20:53;6.25;;;5.60;;
55827;SDS011;41758;51.992;5.890;2024-03-22T13:23:19;6.70;;;5.30;;
55827;SDS011;41758;51.992;5.890;2024-03-22T13:25:45;6.20;;;5.38;;
55827;SDS011;41758;51.992;5.890;2024-03-22T13:28:11;6.97;;;5.97;;
55827;SDS011;41758;51.992;5.890;2024-03-22T13:30:36;6.20;;;5.60;;
55827;SDS011;41758;51.992;5.890;2024-03-22T13:33:02;6.88;;;5.32;;
55827;SDS011;41758;51.992;5.890;2024-03-22T13:35:29;9.48;;;5.97;;
55827;SDS011;41758;51.992;5.890;2024-03-22T13:37:55;6.70;;;5.57;;
55827;SDS011;41758;51.992;5.890;2024-03-22T13:40:21;6.32;;;5.53;;
55827;SDS011;41758;51.992;5.890;2024-03-22T13:42:47;6.88;;;5.88;;
55827;SDS011;41758;51.992;5.890;2024-03-22T13:45:12;6.85;;;5.68;;
55827;SDS011;41758;51.992;5.890;2024-03-22T13:47:38;6.38;;;4.97;;
55827;SDS011;41758;51.992;5.890;2024-03-22T13:50:06;6.93;;;4.80;;
55827;SDS011;41758;51.992;5.890;2024-03-22T13:52:34;6.25;;;5.00;;
55827;SDS011;41758;51.992;5.890;2024-03-22T13:55:00;7.05;;;5.13;;
55827;SDS011;41758;51.992;5.890;2024-03-22T13:57:26;6.82;;;4.90;;
55827;SDS011;41758;51.992;5.890;2024-03-22T13:59:52;6.80;;;5.05;;
55827;SDS011;41758;51.992;5.890;2024-03-22T14:02:18;8.38;;;5.50;;
55827;SDS011;41758;51.992;5.890;2024-03-22T14:04:45;8.50;;;6.18;;
55827;SDS011;41758;51.992;5.890;2024-03-22T14:07:10;9.02;;;6.35;;
55827;SDS011;41758;51.992;5.890;2024-03-22T14:09:36;8.10;;;5.80;;
55827;SDS011;41758;51.992;5.890;2024-03-22T14:12:02;7.68;;;5.70;;
55827;SDS011;41758;51.992;5.890;2024-03-22T14:14:28;8.95;;;6.60;;
55827;SDS011;41758;51.992;5.890;2024-03-22T14:16:54;8.48;;;6.35;;
55827;SDS011;41758;51.992;5.890;2024-03-22T14:19:20;8.57;;;6.68;;
55827;SDS011;41758;51.992;5.890;2024-03-22T14:21:46;7.47;;;5.50;;
55827;SDS011;41758;51.992;5.890;2024-03-22T14:24:12;6.22;;;4.78;;
55827;SDS011;41758;51.992;5.890;2024-03-22T14:26:38;8.32;;;5.82;;